createdAt,value
2023-11-05T00:00:22.001Z,3.97
2023-11-05T00:03:24.894Z,4.07
2023-11-05T00:06:26.930Z,3.28
2023-11-05T00:09:28.945Z,3.40
2023-11-05T00:12:33.525Z,3.60
2023-11-05T00:15:41.021Z,3.17
2023-11-05T00:18:43.060Z,2.92
2023-11-05T00:21:45.708Z,3.50
2023-11-05T00:24:47.783Z,3.38
2023-11-05T00:27:49.830Z,3.75
2023-11-05T00:30:52.643Z,3.17
2023-11-05T00:33:54.744Z,3.75
2023-11-05T00:36:57.059Z,3.05
2023-11-05T00:40:00.727Z,3.13
2023-11-05T00:43:05.588Z,3.10
2023-11-05T00:46:08.071Z,3.40
2023-11-05T00:49:13.852Z,3.50
2023-11-05T00:52:16.147Z,3.28
2023-11-05T00:55:18.665Z,3.53
2023-11-05T00:58:20.698Z,2.95
2023-11-05T01:01:22.843Z,3.70
2023-11-05T01:04:25.020Z,3.65
2023-11-05T01:07:28.965Z,3.67
2023-11-05T01:10:31.957Z,3.70
2023-11-05T01:13:34.046Z,3.67
2023-11-05T01:16:36.308Z,4.13
2023-11-05T01:19:38.411Z,4.90
2023-11-05T01:22:40.435Z,4.13
2023-11-05T01:25:42.494Z,4.05
2023-11-05T01:28:45.163Z,3.83
2023-11-05T01:31:47.224Z,4.23
2023-11-05T01:34:49.640Z,4.40
2023-11-05T01:37:51.609Z,4.15
2023-11-05T01:40:54.133Z,4.25
2023-11-05T01:43:56.142Z,4.47
2023-11-05T01:47:00.301Z,4.28
2023-11-05T01:50:03.007Z,3.75
2023-11-05T01:53:05.190Z,4.33
2023-11-05T01:56:08.071Z,4.28
2023-11-05T01:59:10.471Z,4.28
2023-11-05T02:02:12.618Z,3.72
2023-11-05T02:05:14.846Z,4.07
2023-11-05T02:08:16.860Z,4.15
2023-11-05T02:11:20.142Z,4.55
2023-11-05T02:14:22.687Z,4.10
2023-11-05T02:17:24.742Z,4.18
2023-11-05T02:20:27.133Z,3.70
2023-11-05T02:23:31.252Z,3.53
2023-11-05T02:26:33.506Z,4.07
2023-11-05T02:29:35.763Z,3.40
2023-11-05T02:32:37.990Z,3.40
2023-11-05T02:35:39.970Z,3.40
2023-11-05T02:38:42.091Z,3.15
2023-11-05T02:41:44.611Z,3.50
2023-11-05T02:44:46.712Z,3.08
2023-11-05T02:47:49.327Z,2.80
2023-11-05T02:50:51.842Z,3.45
2023-11-05T02:53:54.038Z,3.30
2023-11-05T02:56:56.092Z,3.10
2023-11-05T02:59:58.574Z,2.93
2023-11-05T03:03:00.722Z,3.00
2023-11-05T03:06:02.876Z,2.92
2023-11-05T03:09:04.895Z,2.80
2023-11-05T03:12:07.717Z,2.70
2023-11-05T03:15:10.534Z,3.17
2023-11-05T03:18:14.504Z,2.30
2023-11-05T03:21:16.702Z,2.10
2023-11-05T03:24:18.745Z,2.93
2023-11-05T03:27:21.281Z,2.60
2023-11-05T03:30:23.337Z,2.47
2023-11-05T03:33:25.647Z,2.53
2023-11-05T03:36:28.024Z,2.70
2023-11-05T03:39:29.960Z,2.95
2023-11-05T03:42:32.323Z,2.47
2023-11-05T03:45:34.302Z,2.33
2023-11-05T03:48:36.771Z,1.97
2023-11-05T03:51:39.228Z,2.60
2023-11-05T03:54:43.594Z,2.38
2023-11-05T03:57:45.626Z,2.25
2023-11-05T04:00:47.711Z,2.40
2023-11-05T04:03:49.755Z,2.20
2023-11-05T04:06:52.341Z,2.10
2023-11-05T04:09:54.345Z,2.20
2023-11-05T04:12:56.847Z,2.42
2023-11-05T04:16:00.625Z,2.10
2023-11-05T04:19:02.749Z,2.70
2023-11-05T04:22:05.347Z,2.60
2023-11-05T04:25:07.540Z,2.17
2023-11-05T04:28:10.079Z,2.92
2023-11-05T04:31:12.475Z,2.78
2023-11-05T04:34:14.567Z,2.50
2023-11-05T04:37:17.024Z,2.55
2023-11-05T04:40:19.061Z,2.70
2023-11-05T04:43:21.763Z,3.08
2023-11-05T04:46:23.822Z,3.27
2023-11-05T04:49:27.211Z,2.53
2023-11-05T04:52:29.447Z,3.05
2023-11-05T04:55:31.477Z,2.42
2023-11-05T04:58:33.651Z,2.50
2023-11-05T05:01:36.278Z,3.97
2023-11-05T05:04:38.794Z,5.38
2023-11-05T05:07:41.087Z,3.08
2023-11-05T05:10:43.108Z,3.13
2023-11-05T05:13:45.771Z,3.75
2023-11-05T05:16:48.290Z,6.18
2023-11-05T05:19:50.964Z,5.23
2023-11-05T05:22:53.169Z,3.53
2023-11-05T05:25:55.717Z,3.45
2023-11-05T05:28:57.820Z,3.63
2023-11-05T05:31:59.805Z,3.50
2023-11-05T05:35:02.259Z,3.20
2023-11-05T05:38:05.456Z,3.22
2023-11-05T05:41:07.624Z,3.83
2023-11-05T05:44:10.031Z,3.92
2023-11-05T05:47:12.013Z,3.53
2023-11-05T05:50:14.591Z,4.32
2023-11-05T05:53:16.614Z,4.10
2023-11-05T05:56:18.637Z,3.75
2023-11-05T05:59:21.302Z,4.05
2023-11-05T06:02:23.632Z,4.78
2023-11-05T06:05:26.242Z,4.27
2023-11-05T06:08:28.481Z,4.70
2023-11-05T06:11:30.664Z,4.25
2023-11-05T06:14:40.952Z,4.70
2023-11-05T06:17:47.622Z,3.75
2023-11-05T06:20:51.194Z,3.53
2023-11-05T06:23:53.512Z,4.38
2023-11-05T06:26:55.658Z,3.50
2023-11-05T06:29:59.561Z,3.40
2023-11-05T06:33:01.591Z,3.42
2023-11-05T06:36:04.229Z,3.58
2023-11-05T06:39:06.912Z,3.90
2023-11-05T06:42:09.021Z,3.33
2023-11-05T06:45:11.139Z,3.42
2023-11-05T06:48:13.587Z,3.70
2023-11-05T06:51:15.693Z,3.45
2023-11-05T06:54:18.366Z,3.28
2023-11-05T06:57:20.340Z,3.35
2023-11-05T07:00:22.369Z,3.20
2023-11-05T07:03:25.463Z,3.17
2023-11-05T07:06:28.177Z,3.13
2023-11-05T07:09:30.526Z,2.90
2023-11-05T07:12:32.897Z,2.70
2023-11-05T07:15:35.356Z,2.80
2023-11-05T07:18:37.892Z,3.53
2023-11-05T07:21:39.999Z,4.23
2023-11-05T07:24:42.134Z,4.63
2023-11-05T07:27:44.117Z,3.10
2023-11-05T07:30:46.624Z,4.10
2023-11-05T07:33:51.937Z,3.67
2023-11-05T07:36:54.864Z,3.90
2023-11-05T07:39:58.041Z,3.70
2023-11-05T07:43:00.468Z,3.37
2023-11-05T07:46:02.459Z,3.05
2023-11-05T07:49:07.360Z,3.00
2023-11-05T07:52:09.962Z,3.05
2023-11-05T07:55:12.675Z,2.93
2023-11-05T07:58:15.363Z,2.97
2023-11-05T08:01:17.565Z,2.70
2023-11-05T08:04:22.186Z,3.13
2023-11-05T08:07:25.438Z,2.43
2023-11-05T08:10:29.301Z,2.83
2023-11-05T08:13:32.417Z,2.92
2023-11-05T08:16:34.543Z,3.30
2023-11-05T08:19:36.686Z,4.13
2023-11-05T08:22:43.161Z,5.93
2023-11-05T08:25:45.984Z,4.90
2023-11-05T08:28:48.126Z,3.60
2023-11-05T08:31:50.334Z,14.70
2023-11-05T08:34:52.485Z,40.72
2023-11-05T08:37:57.125Z,31.00
2023-11-05T08:40:59.595Z,5.43
2023-11-05T08:44:01.664Z,5.22
2023-11-05T08:47:04.251Z,2.40
2023-11-05T08:50:07.976Z,3.72
2023-11-05T08:53:09.977Z,2.33
2023-11-05T08:56:11.991Z,3.00
2023-11-05T08:59:13.973Z,2.20
2023-11-05T09:02:16.393Z,1.90
2023-11-05T09:05:19.011Z,3.60
2023-11-05T09:08:21.435Z,2.10
2023-11-05T09:11:23.578Z,2.22
2023-11-05T09:14:26.096Z,1.90
2023-11-05T09:17:28.262Z,1.40
2023-11-05T09:20:33.725Z,2.47
2023-11-05T09:23:36.523Z,1.92
2023-11-05T09:26:38.718Z,1.70
2023-11-05T09:29:40.627Z,2.33
2023-11-05T09:32:43.887Z,2.47
2023-11-05T09:35:46.187Z,1.65
2023-11-05T09:38:48.195Z,1.80
2023-11-05T09:41:50.192Z,2.27
2023-11-05T09:44:52.344Z,2.40
2023-11-05T09:47:54.692Z,1.70
2023-11-05T09:50:56.980Z,1.90
2023-11-05T09:53:59.358Z,2.17
2023-11-05T09:57:02.748Z,7.43
2023-11-05T10:00:10.037Z,5.00
2023-11-05T10:03:13.792Z,3.65
2023-11-05T10:06:16.910Z,2.80
2023-11-05T10:09:18.892Z,2.23
2023-11-05T10:12:21.043Z,2.30
2023-11-05T10:15:26.584Z,5.10
2023-11-05T10:18:28.800Z,9.20
2023-11-05T10:21:37.053Z,7.23
2023-11-05T10:24:41.096Z,2.88
2023-11-05T10:27:43.399Z,8.82
2023-11-05T10:30:46.406Z,3.83
2023-11-05T10:33:49.532Z,2.30
2023-11-05T10:36:51.538Z,3.05
2023-11-05T10:39:53.502Z,4.38
2023-11-05T10:42:55.672Z,3.60
2023-11-05T10:45:58.318Z,1.77
2023-11-05T10:49:00.845Z,1.63
2023-11-05T10:52:03.508Z,1.95
2023-11-05T10:55:07.144Z,2.40
2023-11-05T10:58:18.164Z,2.20
2023-11-05T11:01:32.216Z,2.83
2023-11-05T11:04:34.866Z,1.83
2023-11-05T11:07:39.912Z,3.07
2023-11-05T11:10:42.486Z,2.47
2023-11-05T11:13:53.521Z,1.90
2023-11-05T11:16:56.309Z,2.03
2023-11-05T11:19:58.789Z,2.70
2023-11-05T11:23:01.172Z,3.58
2023-11-05T11:26:05.392Z,2.95
2023-11-05T11:29:09.130Z,2.70
2023-11-05T11:32:14.728Z,3.40
2023-11-05T11:35:18.292Z,3.60
2023-11-05T11:38:20.871Z,2.97
2023-11-05T11:41:24.257Z,3.35
2023-11-05T11:44:26.685Z,4.35
2023-11-05T11:47:31.182Z,3.30
2023-11-05T11:50:33.892Z,2.67
2023-11-05T11:53:38.999Z,3.33
2023-11-05T11:56:41.615Z,3.03
2023-11-05T11:59:43.671Z,10.67
2023-11-05T12:02:46.285Z,3.03
2023-11-05T12:05:48.424Z,3.50
2023-11-05T12:08:50.966Z,12.93
2023-11-05T12:11:53.223Z,3.40
2023-11-05T12:14:55.778Z,2.67
2023-11-05T12:17:58.283Z,2.70
2023-11-05T12:21:01.924Z,7.05
2023-11-05T12:24:05.307Z,5.68
2023-11-05T12:27:07.768Z,3.87
2023-11-05T12:30:10.250Z,4.03
2023-11-05T12:33:12.417Z,6.05
2023-11-05T12:36:14.508Z,7.90
2023-11-05T12:39:16.559Z,8.60
2023-11-05T12:42:18.736Z,8.37
2023-11-05T12:45:20.886Z,6.43
2023-11-05T12:48:30.286Z,5.45
2023-11-05T12:51:34.457Z,5.00
2023-11-05T12:54:36.729Z,5.63
2023-11-05T12:57:38.805Z,5.97
2023-11-05T13:00:41.035Z,7.97
2023-11-05T13:03:43.367Z,5.60
2023-11-05T13:06:45.683Z,4.97
2023-11-05T13:09:48.036Z,10.73
2023-11-05T13:12:50.175Z,12.85
2023-11-05T13:15:53.112Z,11.57
2023-11-05T13:18:55.408Z,5.82
2023-11-05T13:21:57.785Z,7.20
2023-11-05T13:25:00.290Z,7.57
2023-11-05T13:28:02.716Z,7.57
2023-11-05T13:31:05.484Z,37.33
2023-11-05T13:34:09.222Z,35.20
2023-11-05T13:37:11.759Z,22.07
2023-11-05T13:40:14.264Z,4.30
2023-11-05T13:43:16.493Z,14.48
2023-11-05T13:46:19.070Z,5.57
2023-11-05T13:49:21.251Z,3.55
2023-11-05T13:52:23.734Z,3.23
2023-11-05T13:55:25.998Z,2.63
2023-11-05T13:58:28.485Z,2.28
2023-11-05T14:01:33.274Z,3.00
2023-11-05T14:04:35.404Z,1.90
2023-11-05T14:07:38.909Z,2.30
2023-11-05T14:10:41.228Z,2.50
2023-11-05T14:13:43.757Z,5.65
2023-11-05T14:16:45.911Z,1.98
2023-11-05T14:19:47.984Z,4.53
2023-11-05T14:22:52.656Z,1.47
2023-11-05T14:25:56.299Z,1.83
2023-11-05T14:28:59.229Z,1.70
2023-11-05T14:32:01.388Z,1.20
2023-11-05T14:35:10.266Z,3.17
2023-11-05T14:38:12.991Z,3.33
2023-11-05T14:41:15.973Z,1.50
2023-11-05T14:44:18.151Z,2.17
2023-11-05T14:47:21.415Z,1.50
2023-11-05T14:50:23.675Z,3.95
2023-11-05T14:53:26.924Z,7.80
2023-11-05T14:56:29.039Z,2.63
2023-11-05T14:59:31.057Z,1.70
2023-11-05T15:02:33.267Z,3.63
2023-11-05T15:05:37.225Z,1.67
2023-11-05T15:08:39.810Z,1.53
2023-11-05T15:11:41.906Z,1.50
2023-11-05T15:14:44.432Z,9.35
2023-11-05T15:17:48.132Z,12.40
2023-11-05T15:20:51.778Z,9.95
2023-11-05T15:23:53.786Z,2.10
2023-11-05T15:26:56.590Z,1.70
2023-11-05T15:29:59.489Z,6.72
2023-11-05T15:33:04.634Z,5.45
2023-11-05T15:36:07.535Z,11.60
2023-11-05T15:39:11.013Z,8.90
2023-11-05T15:42:13.089Z,5.00
2023-11-05T15:45:15.789Z,7.22
2023-11-05T15:48:18.403Z,7.10
2023-11-05T15:51:23.879Z,8.52
2023-11-05T15:54:25.872Z,9.73
2023-11-05T15:57:28.404Z,7.20
2023-11-05T16:00:30.803Z,5.82
2023-11-05T16:03:34.728Z,5.10
2023-11-05T16:06:37.464Z,5.67
2023-11-05T16:09:40.451Z,5.82
2023-11-05T16:12:42.569Z,7.45
2023-11-05T16:15:45.043Z,7.38
2023-11-05T16:18:47.404Z,10.63
2023-11-05T16:21:49.928Z,15.75
2023-11-05T16:24:52.014Z,15.00
2023-11-05T16:27:54.219Z,19.05
2023-11-05T16:30:56.827Z,15.82
2023-11-05T16:33:58.946Z,16.50
2023-11-05T16:37:01.126Z,15.45
2023-11-05T16:40:03.433Z,14.87
2023-11-05T16:43:05.899Z,14.32
2023-11-05T16:46:08.283Z,16.75
2023-11-05T16:49:12.039Z,25.77
2023-11-05T16:52:16.537Z,26.57
2023-11-05T16:55:22.255Z,29.87
2023-11-05T16:58:24.325Z,50.10
2023-11-05T17:01:29.008Z,78.40
2023-11-05T17:04:31.182Z,38.90
2023-11-05T17:07:33.662Z,36.00
2023-11-05T17:10:35.696Z,41.95
2023-11-05T17:13:39.200Z,41.47
2023-11-05T17:16:44.814Z,43.20
2023-11-05T17:19:47.565Z,42.00
2023-11-05T17:22:49.702Z,38.05
2023-11-05T17:25:52.794Z,36.65
2023-11-05T17:28:55.953Z,34.33
2023-11-05T17:32:00.736Z,32.85
2023-11-05T17:35:03.522Z,38.10
2023-11-05T17:38:05.982Z,38.43
2023-11-05T17:41:08.111Z,38.13
2023-11-05T17:44:10.644Z,42.40
2023-11-05T17:47:13.132Z,37.30
2023-11-05T17:50:15.733Z,41.88
2023-11-05T17:53:18.224Z,42.88
2023-11-05T17:56:20.649Z,40.65
2023-11-05T17:59:25.660Z,41.63
2023-11-05T18:02:28.108Z,39.60
2023-11-05T18:05:30.700Z,40.67
2023-11-05T18:08:32.786Z,40.83
2023-11-05T18:11:36.063Z,37.75
2023-11-05T18:14:38.004Z,32.15
2023-11-05T18:17:40.256Z,34.78
2023-11-05T18:20:43.619Z,34.50
2023-11-05T18:23:45.814Z,23.50
2023-11-05T18:26:47.936Z,20.83
2023-11-05T18:29:50.227Z,20.58
2023-11-05T18:32:52.595Z,21.63
2023-11-05T18:35:55.449Z,32.90
2023-11-05T18:38:57.854Z,25.58
2023-11-05T18:41:59.902Z,25.92
2023-11-05T18:45:02.388Z,30.17
2023-11-05T18:48:05.339Z,34.42
2023-11-05T18:51:07.759Z,35.72
2023-11-05T18:54:11.616Z,35.63
2023-11-05T18:57:13.716Z,34.78
2023-11-05T19:00:16.442Z,38.17
2023-11-05T19:03:18.954Z,39.30
2023-11-05T19:06:21.132Z,44.17
2023-11-05T19:09:23.994Z,50.47
2023-11-05T19:12:26.032Z,45.42
2023-11-05T19:15:28.049Z,39.20
2023-11-05T19:18:30.571Z,35.33
2023-11-05T19:21:32.586Z,43.22
2023-11-05T19:24:35.004Z,41.80
2023-11-05T19:27:37.183Z,37.90
2023-11-05T19:30:39.245Z,44.05
2023-11-05T19:33:41.315Z,35.97
2023-11-05T19:36:45.133Z,33.78
2023-11-05T19:39:47.114Z,32.40
2023-11-05T19:42:49.334Z,32.72
2023-11-05T19:45:51.763Z,28.90
2023-11-05T19:48:53.983Z,24.45
2023-11-05T19:51:56.092Z,34.25
2023-11-05T19:54:58.278Z,32.20
2023-11-05T19:58:04.451Z,25.00
2023-11-05T20:01:08.206Z,29.25
2023-11-05T20:04:10.209Z,29.98
2023-11-05T20:07:13.930Z,29.07
2023-11-05T20:10:15.990Z,27.85
2023-11-05T20:13:19.449Z,29.15
2023-11-05T20:16:22.390Z,31.27
2023-11-05T20:19:24.785Z,30.95
2023-11-05T20:22:27.379Z,34.45
2023-11-05T20:25:29.455Z,28.80
2023-11-05T20:28:40.296Z,26.52
2023-11-05T20:31:43.982Z,30.55
2023-11-05T20:34:46.055Z,26.30
2023-11-05T20:37:48.241Z,23.43
2023-11-05T20:40:50.360Z,20.60
2023-11-05T20:43:52.862Z,23.23
2023-11-05T20:46:56.041Z,22.73
2023-11-05T20:49:58.800Z,17.38
2023-11-05T20:53:00.829Z,19.77
2023-11-05T20:56:03.482Z,20.60
2023-11-05T20:59:05.659Z,20.50
2023-11-05T21:02:07.727Z,20.08
2023-11-05T21:05:10.243Z,19.15
2023-11-05T21:08:12.859Z,18.60
2023-11-05T21:11:14.894Z,18.77
2023-11-05T21:14:16.907Z,18.20
2023-11-05T21:17:18.904Z,28.10
2023-11-05T21:20:21.755Z,31.35
2023-11-05T21:23:23.841Z,28.45
2023-11-05T21:26:25.972Z,27.92
2023-11-05T21:29:31.145Z,22.25
2023-11-05T21:32:33.304Z,22.23
2023-11-05T21:35:36.909Z,22.35
2023-11-05T21:38:39.116Z,19.63
2023-11-05T21:41:41.780Z,19.92
2023-11-05T21:44:43.762Z,19.73
2023-11-05T21:47:46.374Z,22.30
2023-11-05T21:50:48.963Z,20.73
2023-11-05T21:53:51.027Z,21.55
2023-11-05T21:56:53.531Z,20.52
2023-11-05T21:59:55.959Z,22.80
2023-11-05T22:02:58.071Z,24.65
2023-11-05T22:06:00.422Z,23.60
2023-11-05T22:09:02.572Z,20.47
2023-11-05T22:12:04.844Z,20.92
2023-11-05T22:15:07.328Z,22.25
2023-11-05T22:18:09.421Z,21.97
2023-11-05T22:21:11.946Z,20.50
2023-11-05T22:24:14.299Z,17.92
2023-11-05T22:27:16.346Z,19.50
2023-11-05T22:30:18.997Z,19.13
2023-11-05T22:33:23.433Z,19.02
2023-11-05T22:36:25.596Z,19.85
2023-11-05T22:39:27.665Z,17.80
2023-11-05T22:42:29.780Z,17.80
2023-11-05T22:45:31.717Z,16.67
2023-11-05T22:48:33.824Z,18.97
2023-11-05T22:51:36.001Z,19.83
2023-11-05T22:54:39.702Z,20.13
2023-11-05T22:57:43.954Z,20.80
2023-11-05T23:00:52.626Z,19.38
2023-11-05T23:03:55.819Z,20.42
2023-11-05T23:06:57.943Z,19.05
2023-11-05T23:10:00.041Z,18.63
2023-11-05T23:13:02.398Z,19.95
2023-11-05T23:16:06.179Z,18.65
2023-11-05T23:19:08.414Z,20.00
2023-11-05T23:22:10.424Z,19.40
2023-11-05T23:25:29.267Z,20.13
2023-11-05T23:28:39.079Z,20.25
2023-11-05T23:31:42.616Z,20.63
2023-11-05T23:34:45.283Z,18.83
2023-11-05T23:37:47.533Z,19.33
2023-11-05T23:40:51.523Z,17.73
2023-11-05T23:43:53.820Z,17.88
2023-11-05T23:46:55.877Z,17.45
2023-11-05T23:49:58.547Z,17.50
2023-11-05T23:53:00.797Z,17.05
2023-11-05T23:56:03.371Z,18.98
2023-11-05T23:59:05.937Z,17.42
